sensor_id;sensor_type;location;lat;lon;timestamp;temperature;humidity
22436;DHT22;11385;50.822;4.324;2023-12-20T00:00:59;7.20;99.90
22436;DHT22;11385;50.822;4.324;2023-12-20T00:03:26;7.20;99.90
22436;DHT22;11385;50.822;4.324;2023-12-20T00:05:53;7.10;99.90
22436;DHT22;11385;50.822;4.324;2023-12-20T00:08:20;7.10;99.90
22436;DHT22;11385;50.822;4.324;2023-12-20T00:10:46;7.20;99.90
22436;DHT22;11385;50.822;4.324;2023-12-20T00:13:13;7.20;99.90
22436;DHT22;11385;50.822;4.324;2023-12-20T00:15:40;7.20;99.90
22436;DHT22;11385;50.822;4.324;2023-12-20T00:18:26;7.30;99.90
22436;DHT22;11385;50.822;4.324;2023-12-20T00:20:53;7.20;99.90
22436;DHT22;11385;50.822;4.324;2023-12-20T00:23:20;7.20;99.90
22436;DHT22;11385;50.822;4.324;2023-12-20T00:25:49;7.10;99.90
22436;DHT22;11385;50.822;4.324;2023-12-20T00:28:15;7.10;99.90
22436;DHT22;11385;50.822;4.324;2023-12-20T00:30:42;7.20;99.90
22436;DHT22;11385;50.822;4.324;2023-12-20T00:33:09;7.20;99.90
22436;DHT22;11385;50.822;4.324;2023-12-20T00:35:35;6.90;99.90
22436;DHT22;11385;50.822;4.324;2023-12-20T00:38:02;6.90;99.90
22436;DHT22;11385;50.822;4.324;2023-12-20T00:40:34;6.80;99.90
22436;DHT22;11385;50.822;4.324;2023-12-20T00:43:11;6.90;99.90
22436;DHT22;11385;50.822;4.324;2023-12-20T00:45:38;6.80;99.90
22436;DHT22;11385;50.822;4.324;2023-12-20T00:48:05;6.70;99.90
22436;DHT22;11385;50.822;4.324;2023-12-20T00:50:32;6.80;99.90
22436;DHT22;11385;50.822;4.324;2023-12-20T00:52:59;6.70;99.90
22436;DHT22;11385;50.822;4.324;2023-12-20T00:55:25;6.70;99.90
22436;DHT22;11385;50.822;4.324;2023-12-20T00:57:53;6.70;99.90
22436;DHT22;11385;50.822;4.324;2023-12-20T01:00:25;6.70;99.90
22436;DHT22;11385;50.822;4.324;2023-12-20T01:02:55;6.70;99.90
22436;DHT22;11385;50.822;4.324;2023-12-20T01:05:22;6.60;99.90
22436;DHT22;11385;50.822;4.324;2023-12-20T01:07:49;6.60;99.90
22436;DHT22;11385;50.822;4.324;2023-12-20T01:10:16;6.70;99.90
22436;DHT22;11385;50.822;4.324;2023-12-20T01:12:53;6.80;99.90
22436;DHT22;11385;50.822;4.324;2023-12-20T01:15:24;6.70;99.90
22436;DHT22;11385;50.822;4.324;2023-12-20T01:17:51;6.60;99.90
22436;DHT22;11385;50.822;4.324;2023-12-20T01:20:17;6.50;99.90
22436;DHT22;11385;50.822;4.324;2023-12-20T01:22:46;6.60;99.90
22436;DHT22;11385;50.822;4.324;2023-12-20T01:25:12;6.70;99.90
22436;DHT22;11385;50.822;4.324;2023-12-20T01:27:39;6.70;99.90
22436;DHT22;11385;50.822;4.324;2023-12-20T01:30:06;6.60;99.90
22436;DHT22;11385;50.822;4.324;2023-12-20T01:32:33;6.60;99.90
22436;DHT22;11385;50.822;4.324;2023-12-20T01:34:59;6.60;99.90
22436;DHT22;11385;50.822;4.324;2023-12-20T01:37:26;6.50;99.90
22436;DHT22;11385;50.822;4.324;2023-12-20T01:39:55;6.50;99.90
22436;DHT22;11385;50.822;4.324;2023-12-20T01:42:21;6.50;99.90
22436;DHT22;11385;50.822;4.324;2023-12-20T01:44:49;6.50;99.90
22436;DHT22;11385;50.822;4.324;2023-12-20T01:47:16;6.60;99.90
22436;DHT22;11385;50.822;4.324;2023-12-20T01:49:43;6.60;99.90
22436;DHT22;11385;50.822;4.324;2023-12-20T01:52:10;6.50;99.90
22436;DHT22;11385;50.822;4.324;2023-12-20T01:54:37;6.50;99.90
22436;DHT22;11385;50.822;4.324;2023-12-20T01:57:05;6.30;99.90
22436;DHT22;11385;50.822;4.324;2023-12-20T01:59:33;6.30;99.90
22436;DHT22;11385;50.822;4.324;2023-12-20T02:02:00;6.40;99.90
22436;DHT22;11385;50.822;4.324;2023-12-20T02:04:28;6.50;99.90
22436;DHT22;11385;50.822;4.324;2023-12-20T02:06:56;6.50;99.90
22436;DHT22;11385;50.822;4.324;2023-12-20T02:09:24;6.50;99.90
22436;DHT22;11385;50.822;4.324;2023-12-20T02:11:50;6.40;99.90
22436;DHT22;11385;50.822;4.324;2023-12-20T02:14:17;6.30;99.90
22436;DHT22;11385;50.822;4.324;2023-12-20T02:16:43;6.30;99.90
22436;DHT22;11385;50.822;4.324;2023-12-20T02:19:13;6.30;99.90
22436;DHT22;11385;50.822;4.324;2023-12-20T02:21:40;6.30;99.90
22436;DHT22;11385;50.822;4.324;2023-12-20T02:24:07;6.20;99.90
22436;DHT22;11385;50.822;4.324;2023-12-20T02:26:34;6.20;99.90
22436;DHT22;11385;50.822;4.324;2023-12-20T02:29:01;6.30;99.90
22436;DHT22;11385;50.822;4.324;2023-12-20T02:31:28;6.20;99.90
22436;DHT22;11385;50.822;4.324;2023-12-20T02:33:54;6.10;99.90
22436;DHT22;11385;50.822;4.324;2023-12-20T02:36:21;6.20;99.90
22436;DHT22;11385;50.822;4.324;2023-12-20T02:38:47;6.20;99.90
22436;DHT22;11385;50.822;4.324;2023-12-20T02:41:14;6.20;99.90
22436;DHT22;11385;50.822;4.324;2023-12-20T02:43:43;6.20;99.90
22436;DHT22;11385;50.822;4.324;2023-12-20T02:46:10;6.30;99.90
22436;DHT22;11385;50.822;4.324;2023-12-20T02:48:36;6.20;99.90
22436;DHT22;11385;50.822;4.324;2023-12-20T02:51:03;6.20;99.90
22436;DHT22;11385;50.822;4.324;2023-12-20T02:53:30;6.20;99.90
22436;DHT22;11385;50.822;4.324;2023-12-20T02:55:56;6.30;99.90
22436;DHT22;11385;50.822;4.324;2023-12-20T02:58:23;6.40;99.90
22436;DHT22;11385;50.822;4.324;2023-12-20T03:00:51;6.30;99.90
22436;DHT22;11385;50.822;4.324;2023-12-20T03:03:17;6.20;99.90
22436;DHT22;11385;50.822;4.324;2023-12-20T03:05:45;6.20;99.90
22436;DHT22;11385;50.822;4.324;2023-12-20T03:08:12;6.30;99.90
22436;DHT22;11385;50.822;4.324;2023-12-20T03:10:39;6.40;99.90
22436;DHT22;11385;50.822;4.324;2023-12-20T03:13:05;6.50;99.90
22436;DHT22;11385;50.822;4.324;2023-12-20T03:15:32;6.40;99.90
22436;DHT22;11385;50.822;4.324;2023-12-20T03:17:59;6.60;99.90
22436;DHT22;11385;50.822;4.324;2023-12-20T03:20:25;6.60;99.90
22436;DHT22;11385;50.822;4.324;2023-12-20T03:22:53;6.70;99.90
22436;DHT22;11385;50.822;4.324;2023-12-20T03:25:19;6.80;99.90
22436;DHT22;11385;50.822;4.324;2023-12-20T03:27:46;6.80;99.90
22436;DHT22;11385;50.822;4.324;2023-12-20T03:30:13;6.80;99.90
22436;DHT22;11385;50.822;4.324;2023-12-20T03:32:40;6.70;99.90
22436;DHT22;11385;50.822;4.324;2023-12-20T03:35:06;6.70;99.90
22436;DHT22;11385;50.822;4.324;2023-12-20T03:37:33;6.70;99.90
22436;DHT22;11385;50.822;4.324;2023-12-20T03:40:00;6.60;99.90
22436;DHT22;11385;50.822;4.324;2023-12-20T03:42:26;6.60;99.90
22436;DHT22;11385;50.822;4.324;2023-12-20T03:44:53;6.60;99.90
22436;DHT22;11385;50.822;4.324;2023-12-20T03:47:25;6.50;99.90
22436;DHT22;11385;50.822;4.324;2023-12-20T03:49:53;6.60;99.90
22436;DHT22;11385;50.822;4.324;2023-12-20T03:52:19;6.50;99.90
22436;DHT22;11385;50.822;4.324;2023-12-20T03:54:46;6.70;99.90
22436;DHT22;11385;50.822;4.324;2023-12-20T03:57:13;6.50;99.90
22436;DHT22;11385;50.822;4.324;2023-12-20T03:59:39;6.50;99.90
22436;DHT22;11385;50.822;4.324;2023-12-20T04:02:06;6.60;99.90
22436;DHT22;11385;50.822;4.324;2023-12-20T04:04:33;6.60;99.90
22436;DHT22;11385;50.822;4.324;2023-12-20T04:06:59;6.60;99.90
22436;DHT22;11385;50.822;4.324;2023-12-20T04:09:26;6.60;99.90
22436;DHT22;11385;50.822;4.324;2023-12-20T04:11:53;6.60;99.90
22436;DHT22;11385;50.822;4.324;2023-12-20T04:14:19;6.60;99.90
22436;DHT22;11385;50.822;4.324;2023-12-20T04:16:46;6.60;99.90
22436;DHT22;11385;50.822;4.324;2023-12-20T04:19:12;6.50;99.90
22436;DHT22;11385;50.822;4.324;2023-12-20T04:21:39;6.40;99.90
22436;DHT22;11385;50.822;4.324;2023-12-20T04:24:06;6.30;99.90
22436;DHT22;11385;50.822;4.324;2023-12-20T04:26:32;6.20;99.90
22436;DHT22;11385;50.822;4.324;2023-12-20T04:28:59;6.20;99.90
22436;DHT22;11385;50.822;4.324;2023-12-20T04:31:26;6.20;99.90
22436;DHT22;11385;50.822;4.324;2023-12-20T04:33:52;6.20;99.90
22436;DHT22;11385;50.822;4.324;2023-12-20T04:36:19;6.20;99.90
22436;DHT22;11385;50.822;4.324;2023-12-20T04:38:45;6.30;99.90
22436;DHT22;11385;50.822;4.324;2023-12-20T04:41:12;6.30;99.90
22436;DHT22;11385;50.822;4.324;2023-12-20T04:43:41;6.30;99.90
22436;DHT22;11385;50.822;4.324;2023-12-20T04:46:08;6.20;99.90
22436;DHT22;11385;50.822;4.324;2023-12-20T04:48:34;6.20;99.90
22436;DHT22;11385;50.822;4.324;2023-12-20T04:51:01;6.20;99.90
22436;DHT22;11385;50.822;4.324;2023-12-20T04:53:28;6.30;99.90
22436;DHT22;11385;50.822;4.324;2023-12-20T04:55:54;6.30;99.90
22436;DHT22;11385;50.822;4.324;2023-12-20T04:58:21;6.30;99.90
22436;DHT22;11385;50.822;4.324;2023-12-20T05:00:47;6.30;99.90
22436;DHT22;11385;50.822;4.324;2023-12-20T05:03:14;6.30;99.90
22436;DHT22;11385;50.822;4.324;2023-12-20T05:05:41;6.30;99.90
22436;DHT22;11385;50.822;4.324;2023-12-20T05:08:07;6.40;99.90
22436;DHT22;11385;50.822;4.324;2023-12-20T05:10:34;6.50;99.90
22436;DHT22;11385;50.822;4.324;2023-12-20T05:13:02;6.60;99.90
22436;DHT22;11385;50.822;4.324;2023-12-20T05:15:29;6.60;99.90
22436;DHT22;11385;50.822;4.324;2023-12-20T05:17:55;6.60;99.90
22436;DHT22;11385;50.822;4.324;2023-12-20T05:20:22;6.50;99.90
22436;DHT22;11385;50.822;4.324;2023-12-20T05:22:49;6.50;99.90
22436;DHT22;11385;50.822;4.324;2023-12-20T05:25:16;6.40;99.90
22436;DHT22;11385;50.822;4.324;2023-12-20T05:27:42;6.30;99.90
22436;DHT22;11385;50.822;4.324;2023-12-20T05:30:09;6.20;99.90
22436;DHT22;11385;50.822;4.324;2023-12-20T05:32:36;6.10;99.90
22436;DHT22;11385;50.822;4.324;2023-12-20T05:35:03;5.90;99.90
22436;DHT22;11385;50.822;4.324;2023-12-20T05:37:30;6.00;99.90
22436;DHT22;11385;50.822;4.324;2023-12-20T05:39:56;5.90;99.90
22436;DHT22;11385;50.822;4.324;2023-12-20T05:42:23;5.90;99.90
22436;DHT22;11385;50.822;4.324;2023-12-20T05:44:50;5.80;99.90
22436;DHT22;11385;50.822;4.324;2023-12-20T05:47:16;5.80;99.90
22436;DHT22;11385;50.822;4.324;2023-12-20T05:49:44;5.80;99.90
22436;DHT22;11385;50.822;4.324;2023-12-20T05:52:10;5.70;99.90
22436;DHT22;11385;50.822;4.324;2023-12-20T05:54:37;5.70;99.90
22436;DHT22;11385;50.822;4.324;2023-12-20T05:57:04;5.70;99.90
22436;DHT22;11385;50.822;4.324;2023-12-20T05:59:30;5.80;99.90
22436;DHT22;11385;50.822;4.324;2023-12-20T06:01:57;5.90;99.90
22436;DHT22;11385;50.822;4.324;2023-12-20T06:04:23;5.80;99.90
22436;DHT22;11385;50.822;4.324;2023-12-20T06:06:50;5.90;99.90
22436;DHT22;11385;50.822;4.324;2023-12-20T06:09:17;5.80;99.90
22436;DHT22;11385;50.822;4.324;2023-12-20T06:11:44;5.80;99.90
22436;DHT22;11385;50.822;4.324;2023-12-20T06:14:10;5.80;99.90
22436;DHT22;11385;50.822;4.324;2023-12-20T06:16:37;5.80;99.90
22436;DHT22;11385;50.822;4.324;2023-12-20T06:19:03;5.80;99.90
22436;DHT22;11385;50.822;4.324;2023-12-20T06:21:30;6.00;99.90
22436;DHT22;11385;50.822;4.324;2023-12-20T06:23:59;6.00;99.90
22436;DHT22;11385;50.822;4.324;2023-12-20T06:26:25;6.10;99.90
22436;DHT22;11385;50.822;4.324;2023-12-20T06:28:52;6.10;99.90
22436;DHT22;11385;50.822;4.324;2023-12-20T06:31:19;6.10;99.90
22436;DHT22;11385;50.822;4.324;2023-12-20T06:33:45;6.10;99.90
22436;DHT22;11385;50.822;4.324;2023-12-20T06:36:13;6.10;99.90
22436;DHT22;11385;50.822;4.324;2023-12-20T06:38:41;6.10;99.90
22436;DHT22;11385;50.822;4.324;2023-12-20T06:41:12;6.00;99.90
22436;DHT22;11385;50.822;4.324;2023-12-20T06:43:40;5.90;99.90
22436;DHT22;11385;50.822;4.324;2023-12-20T06:46:06;5.90;99.90
22436;DHT22;11385;50.822;4.324;2023-12-20T06:48:33;5.80;99.90
22436;DHT22;11385;50.822;4.324;2023-12-20T06:51:00;5.80;99.90
22436;DHT22;11385;50.822;4.324;2023-12-20T06:53:28;5.90;99.90
22436;DHT22;11385;50.822;4.324;2023-12-20T06:55:54;5.80;99.90
22436;DHT22;11385;50.822;4.324;2023-12-20T06:58:22;5.60;99.90
22436;DHT22;11385;50.822;4.324;2023-12-20T07:00:50;5.70;99.90
22436;DHT22;11385;50.822;4.324;2023-12-20T07:03:17;5.80;99.90
22436;DHT22;11385;50.822;4.324;2023-12-20T07:05:44;5.70;99.90
22436;DHT22;11385;50.822;4.324;2023-12-20T07:08:10;5.80;99.90
22436;DHT22;11385;50.822;4.324;2023-12-20T07:10:39;5.70;99.90
22436;DHT22;11385;50.822;4.324;2023-12-20T07:13:06;5.60;99.90
22436;DHT22;11385;50.822;4.324;2023-12-20T07:15:32;5.40;99.90
22436;DHT22;11385;50.822;4.324;2023-12-20T07:17:59;5.30;99.90
22436;DHT22;11385;50.822;4.324;2023-12-20T07:20:26;5.40;99.90
22436;DHT22;11385;50.822;4.324;2023-12-20T07:22:53;5.40;99.90
22436;DHT22;11385;50.822;4.324;2023-12-20T07:25:19;5.40;99.90
22436;DHT22;11385;50.822;4.324;2023-12-20T07:27:46;5.40;99.90
22436;DHT22;11385;50.822;4.324;2023-12-20T07:30:13;5.40;99.90
22436;DHT22;11385;50.822;4.324;2023-12-20T07:32:39;5.50;99.90
22436;DHT22;11385;50.822;4.324;2023-12-20T07:35:06;5.40;99.90
22436;DHT22;11385;50.822;4.324;2023-12-20T07:37:33;5.30;99.90
22436;DHT22;11385;50.822;4.324;2023-12-20T07:39:59;5.30;99.90
22436;DHT22;11385;50.822;4.324;2023-12-20T07:42:26;5.30;99.90
22436;DHT22;11385;50.822;4.324;2023-12-20T07:44:53;5.30;99.90
22436;DHT22;11385;50.822;4.324;2023-12-20T07:47:19;5.30;99.90
22436;DHT22;11385;50.822;4.324;2023-12-20T07:49:49;5.30;99.90
22436;DHT22;11385;50.822;4.324;2023-12-20T07:52:18;5.30;99.90
22436;DHT22;11385;50.822;4.324;2023-12-20T07:54:45;5.40;99.90
22436;DHT22;11385;50.822;4.324;2023-12-20T07:57:12;5.30;99.90
22436;DHT22;11385;50.822;4.324;2023-12-20T07:59:38;5.30;99.90
22436;DHT22;11385;50.822;4.324;2023-12-20T08:02:06;5.50;99.90
22436;DHT22;11385;50.822;4.324;2023-12-20T08:04:33;5.40;99.90
22436;DHT22;11385;50.822;4.324;2023-12-20T08:07:00;5.50;99.90
22436;DHT22;11385;50.822;4.324;2023-12-20T08:09:26;5.40;99.90
22436;DHT22;11385;50.822;4.324;2023-12-20T08:11:53;5.40;99.90
22436;DHT22;11385;50.822;4.324;2023-12-20T08:14:20;5.30;99.90
22436;DHT22;11385;50.822;4.324;2023-12-20T08:16:46;5.40;99.90
22436;DHT22;11385;50.822;4.324;2023-12-20T08:19:13;5.40;99.90
22436;DHT22;11385;50.822;4.324;2023-12-20T08:21:40;5.30;99.90
22436;DHT22;11385;50.822;4.324;2023-12-20T08:24:07;5.40;99.90
22436;DHT22;11385;50.822;4.324;2023-12-20T08:26:33;5.40;99.90
22436;DHT22;11385;50.822;4.324;2023-12-20T08:29:00;5.50;99.90
22436;DHT22;11385;50.822;4.324;2023-12-20T08:31:27;5.50;99.90
22436;DHT22;11385;50.822;4.324;2023-12-20T08:33:54;5.50;99.90
22436;DHT22;11385;50.822;4.324;2023-12-20T08:36:21;5.50;99.90
22436;DHT22;11385;50.822;4.324;2023-12-20T08:38:49;5.50;99.90
22436;DHT22;11385;50.822;4.324;2023-12-20T08:41:17;5.50;99.90
22436;DHT22;11385;50.822;4.324;2023-12-20T08:43:44;5.50;99.90
22436;DHT22;11385;50.822;4.324;2023-12-20T08:46:10;5.60;99.90
22436;DHT22;11385;50.822;4.324;2023-12-20T08:48:37;5.60;99.90
22436;DHT22;11385;50.822;4.324;2023-12-20T08:51:04;5.70;99.90
22436;DHT22;11385;50.822;4.324;2023-12-20T08:53:34;5.80;99.90
22436;DHT22;11385;50.822;4.324;2023-12-20T08:56:01;5.70;99.90
22436;DHT22;11385;50.822;4.324;2023-12-20T08:58:28;5.70;99.90
22436;DHT22;11385;50.822;4.324;2023-12-20T09:00:55;5.60;99.90
22436;DHT22;11385;50.822;4.324;2023-12-20T09:03:22;5.60;99.90
22436;DHT22;11385;50.822;4.324;2023-12-20T09:05:49;5.60;99.90
22436;DHT22;11385;50.822;4.324;2023-12-20T09:08:15;5.80;99.90
22436;DHT22;11385;50.822;4.324;2023-12-20T09:10:42;5.70;99.90
22436;DHT22;11385;50.822;4.324;2023-12-20T09:13:08;5.70;99.90
22436;DHT22;11385;50.822;4.324;2023-12-20T09:15:35;5.70;99.90
22436;DHT22;11385;50.822;4.324;2023-12-20T09:18:02;5.80;99.90
22436;DHT22;11385;50.822;4.324;2023-12-20T09:20:29;5.80;99.90
22436;DHT22;11385;50.822;4.324;2023-12-20T09:22:56;5.80;99.90
22436;DHT22;11385;50.822;4.324;2023-12-20T09:25:22;6.00;99.90
22436;DHT22;11385;50.822;4.324;2023-12-20T09:27:49;6.10;99.90
22436;DHT22;11385;50.822;4.324;2023-12-20T09:30:16;6.10;99.90
22436;DHT22;11385;50.822;4.324;2023-12-20T09:32:42;6.10;99.90
22436;DHT22;11385;50.822;4.324;2023-12-20T09:35:09;6.10;99.90
22436;DHT22;11385;50.822;4.324;2023-12-20T09:37:35;6.10;99.90
22436;DHT22;11385;50.822;4.324;2023-12-20T09:40:03;6.10;99.90
22436;DHT22;11385;50.822;4.324;2023-12-20T09:42:48;6.20;99.90
22436;DHT22;11385;50.822;4.324;2023-12-20T09:45:19;6.30;99.90
22436;DHT22;11385;50.822;4.324;2023-12-20T09:47:49;6.40;99.90
22436;DHT22;11385;50.822;4.324;2023-12-20T09:50:19;6.50;99.90
22436;DHT22;11385;50.822;4.324;2023-12-20T09:52:50;6.50;99.90
22436;DHT22;11385;50.822;4.324;2023-12-20T09:55:17;6.50;99.90
22436;DHT22;11385;50.822;4.324;2023-12-20T09:57:45;6.60;99.90
22436;DHT22;11385;50.822;4.324;2023-12-20T10:00:13;6.80;99.90
22436;DHT22;11385;50.822;4.324;2023-12-20T10:02:45;6.90;99.90
22436;DHT22;11385;50.822;4.324;2023-12-20T10:05:16;6.90;99.90
22436;DHT22;11385;50.822;4.324;2023-12-20T10:07:45;6.90;99.90
22436;DHT22;11385;50.822;4.324;2023-12-20T10:10:14;6.90;99.90
22436;DHT22;11385;50.822;4.324;2023-12-20T10:12:40;6.80;99.90
22436;DHT22;11385;50.822;4.324;2023-12-20T10:15:09;6.70;99.90
22436;DHT22;11385;50.822;4.324;2023-12-20T10:17:36;6.70;99.90
22436;DHT22;11385;50.822;4.324;2023-12-20T10:20:03;6.70;99.90
22436;DHT22;11385;50.822;4.324;2023-12-20T10:22:32;6.80;99.90
22436;DHT22;11385;50.822;4.324;2023-12-20T10:24:58;6.90;99.90
22436;DHT22;11385;50.822;4.324;2023-12-20T10:27:25;7.00;99.90
22436;DHT22;11385;50.822;4.324;2023-12-20T10:29:52;7.10;99.90
22436;DHT22;11385;50.822;4.324;2023-12-20T10:32:24;7.10;99.90
22436;DHT22;11385;50.822;4.324;2023-12-20T10:34:51;7.20;99.90
22436;DHT22;11385;50.822;4.324;2023-12-20T10:37:18;7.30;99.90
22436;DHT22;11385;50.822;4.324;2023-12-20T10:39:54;7.40;99.90
22436;DHT22;11385;50.822;4.324;2023-12-20T10:42:26;7.50;99.90
22436;DHT22;11385;50.822;4.324;2023-12-20T10:44:53;7.60;99.90
22436;DHT22;11385;50.822;4.324;2023-12-20T10:47:20;7.60;99.90
22436;DHT22;11385;50.822;4.324;2023-12-20T10:49:52;7.80;99.90
22436;DHT22;11385;50.822;4.324;2023-12-20T10:52:23;7.80;99.90
22436;DHT22;11385;50.822;4.324;2023-12-20T10:54:50;7.80;99.90
22436;DHT22;11385;50.822;4.324;2023-12-20T10:57:18;7.70;99.90
22436;DHT22;11385;50.822;4.324;2023-12-20T10:59:45;7.80;99.90
22436;DHT22;11385;50.822;4.324;2023-12-20T11:02:15;7.80;99.90
22436;DHT22;11385;50.822;4.324;2023-12-20T11:04:49;7.90;99.90
22436;DHT22;11385;50.822;4.324;2023-12-20T11:07:33;8.00;99.90
22436;DHT22;11385;50.822;4.324;2023-12-20T11:10:21;8.00;99.90
22436;DHT22;11385;50.822;4.324;2023-12-20T11:13:06;8.00;99.90
22436;DHT22;11385;50.822;4.324;2023-12-20T11:15:36;7.90;99.90
22436;DHT22;11385;50.822;4.324;2023-12-20T11:18:04;7.90;99.90
22436;DHT22;11385;50.822;4.324;2023-12-20T11:20:37;7.90;99.90
22436;DHT22;11385;50.822;4.324;2023-12-20T11:23:06;8.00;99.90
22436;DHT22;11385;50.822;4.324;2023-12-20T11:25:47;8.10;99.90
22436;DHT22;11385;50.822;4.324;2023-12-20T11:28:14;8.10;99.90
22436;DHT22;11385;50.822;4.324;2023-12-20T11:30:51;8.00;99.90
22436;DHT22;11385;50.822;4.324;2023-12-20T11:33:25;8.00;99.90
22436;DHT22;11385;50.822;4.324;2023-12-20T11:35:52;8.10;99.90
22436;DHT22;11385;50.822;4.324;2023-12-20T11:38:21;8.10;99.90
22436;DHT22;11385;50.822;4.324;2023-12-20T11:40:49;8.00;99.90
22436;DHT22;11385;50.822;4.324;2023-12-20T11:45:55;7.90;99.90
22436;DHT22;11385;50.822;4.324;2023-12-20T11:48:42;7.90;99.90
22436;DHT22;11385;50.822;4.324;2023-12-20T11:51:14;7.90;99.90
22436;DHT22;11385;50.822;4.324;2023-12-20T11:53:41;8.10;99.90
22436;DHT22;11385;50.822;4.324;2023-12-20T11:56:09;8.20;99.90
22436;DHT22;11385;50.822;4.324;2023-12-20T11:58:36;8.30;99.90
22436;DHT22;11385;50.822;4.324;2023-12-20T12:01:03;8.20;99.90
22436;DHT22;11385;50.822;4.324;2023-12-20T12:03:33;8.30;99.90
22436;DHT22;11385;50.822;4.324;2023-12-20T12:05:59;8.40;99.90
22436;DHT22;11385;50.822;4.324;2023-12-20T12:08:27;8.50;99.90
22436;DHT22;11385;50.822;4.324;2023-12-20T12:10:53;8.50;99.90
22436;DHT22;11385;50.822;4.324;2023-12-20T12:13:20;8.50;99.90
22436;DHT22;11385;50.822;4.324;2023-12-20T12:15:48;8.60;99.90
22436;DHT22;11385;50.822;4.324;2023-12-20T12:18:16;8.70;99.90
22436;DHT22;11385;50.822;4.324;2023-12-20T12:20:43;8.80;99.90
22436;DHT22;11385;50.822;4.324;2023-12-20T12:23:10;8.70;99.90
22436;DHT22;11385;50.822;4.324;2023-12-20T12:25:36;8.80;99.90
22436;DHT22;11385;50.822;4.324;2023-12-20T12:28:03;8.80;99.90
22436;DHT22;11385;50.822;4.324;2023-12-20T12:30:30;8.80;99.90
22436;DHT22;11385;50.822;4.324;2023-12-20T12:32:57;8.80;99.90
22436;DHT22;11385;50.822;4.324;2023-12-20T12:35:25;8.80;99.90
22436;DHT22;11385;50.822;4.324;2023-12-20T12:37:51;8.90;99.90
22436;DHT22;11385;50.822;4.324;2023-12-20T12:40:19;8.80;99.90
22436;DHT22;11385;50.822;4.324;2023-12-20T12:42:46;8.70;99.90
22436;DHT22;11385;50.822;4.324;2023-12-20T12:45:13;8.80;99.90
22436;DHT22;11385;50.822;4.324;2023-12-20T12:47:40;8.80;99.90
22436;DHT22;11385;50.822;4.324;2023-12-20T12:50:08;8.60;99.90
22436;DHT22;11385;50.822;4.324;2023-12-20T12:52:34;8.70;99.90
22436;DHT22;11385;50.822;4.324;2023-12-20T12:55:01;8.60;99.90
22436;DHT22;11385;50.822;4.324;2023-12-20T12:57:29;8.60;99.90
22436;DHT22;11385;50.822;4.324;2023-12-20T12:59:56;8.70;99.90
22436;DHT22;11385;50.822;4.324;2023-12-20T13:02:24;8.70;99.90
22436;DHT22;11385;50.822;4.324;2023-12-20T13:04:51;8.60;99.90
22436;DHT22;11385;50.822;4.324;2023-12-20T13:07:18;8.60;99.90
22436;DHT22;11385;50.822;4.324;2023-12-20T13:09:44;8.60;99.90
22436;DHT22;11385;50.822;4.324;2023-12-20T13:12:11;8.70;99.90
22436;DHT22;11385;50.822;4.324;2023-12-20T13:14:38;8.80;99.90
22436;DHT22;11385;50.822;4.324;2023-12-20T13:17:04;8.90;99.90
22436;DHT22;11385;50.822;4.324;2023-12-20T13:19:31;8.90;99.90
22436;DHT22;11385;50.822;4.324;2023-12-20T13:21:58;8.80;99.90
22436;DHT22;11385;50.822;4.324;2023-12-20T13:24:25;8.90;99.90
22436;DHT22;11385;50.822;4.324;2023-12-20T13:26:51;8.90;99.90
22436;DHT22;11385;50.822;4.324;2023-12-20T13:29:18;9.00;99.90
22436;DHT22;11385;50.822;4.324;2023-12-20T13:31:45;9.10;99.90
22436;DHT22;11385;50.822;4.324;2023-12-20T13:34:12;9.10;99.90
22436;DHT22;11385;50.822;4.324;2023-12-20T13:36:38;9.10;99.90
22436;DHT22;11385;50.822;4.324;2023-12-20T13:39:05;9.10;99.90
22436;DHT22;11385;50.822;4.324;2023-12-20T13:41:33;9.10;99.90
22436;DHT22;11385;50.822;4.324;2023-12-20T13:43:59;9.20;99.90
22436;DHT22;11385;50.822;4.324;2023-12-20T13:46:28;9.30;99.90
22436;DHT22;11385;50.822;4.324;2023-12-20T13:48:55;9.20;99.90
22436;DHT22;11385;50.822;4.324;2023-12-20T13:51:21;9.20;99.90
22436;DHT22;11385;50.822;4.324;2023-12-20T13:53:48;9.30;99.90
22436;DHT22;11385;50.822;4.324;2023-12-20T13:56:16;9.30;99.90
22436;DHT22;11385;50.822;4.324;2023-12-20T13:58:42;9.20;99.90
22436;DHT22;11385;50.822;4.324;2023-12-20T14:01:09;9.20;99.90
22436;DHT22;11385;50.822;4.324;2023-12-20T14:03:37;9.20;99.90
22436;DHT22;11385;50.822;4.324;2023-12-20T14:06:04;9.20;99.90
22436;DHT22;11385;50.822;4.324;2023-12-20T14:08:31;9.30;99.90
22436;DHT22;11385;50.822;4.324;2023-12-20T14:10:57;9.30;99.90
22436;DHT22;11385;50.822;4.324;2023-12-20T14:13:24;9.30;99.90
22436;DHT22;11385;50.822;4.324;2023-12-20T14:15:51;9.20;99.90
22436;DHT22;11385;50.822;4.324;2023-12-20T14:18:17;9.20;99.90
22436;DHT22;11385;50.822;4.324;2023-12-20T14:20:44;9.20;99.90
22436;DHT22;11385;50.822;4.324;2023-12-20T14:23:12;9.20;99.90
22436;DHT22;11385;50.822;4.324;2023-12-20T14:25:42;9.20;99.90
22436;DHT22;11385;50.822;4.324;2023-12-20T14:28:08;9.30;99.90
22436;DHT22;11385;50.822;4.324;2023-12-20T14:30:38;9.30;99.90
22436;DHT22;11385;50.822;4.324;2023-12-20T14:33:04;9.20;99.90
22436;DHT22;11385;50.822;4.324;2023-12-20T14:35:31;9.10;99.90
22436;DHT22;11385;50.822;4.324;2023-12-20T14:37:58;9.20;99.90
22436;DHT22;11385;50.822;4.324;2023-12-20T14:40:25;9.20;99.90
22436;DHT22;11385;50.822;4.324;2023-12-20T14:42:52;9.20;99.90
22436;DHT22;11385;50.822;4.324;2023-12-20T14:45:19;9.30;99.90
22436;DHT22;11385;50.822;4.324;2023-12-20T14:47:47;9.40;99.90
22436;DHT22;11385;50.822;4.324;2023-12-20T14:50:13;9.40;99.90
22436;DHT22;11385;50.822;4.324;2023-12-20T14:52:42;9.40;99.90
22436;DHT22;11385;50.822;4.324;2023-12-20T14:55:09;9.30;99.90
22436;DHT22;11385;50.822;4.324;2023-12-20T14:57:36;9.40;99.90
22436;DHT22;11385;50.822;4.324;2023-12-20T15:00:03;9.30;99.90
22436;DHT22;11385;50.822;4.324;2023-12-20T15:02:30;9.20;99.90
22436;DHT22;11385;50.822;4.324;2023-12-20T15:04:57;9.30;99.90
22436;DHT22;11385;50.822;4.324;2023-12-20T15:07:24;9.40;99.90
22436;DHT22;11385;50.822;4.324;2023-12-20T15:09:50;9.30;99.90
22436;DHT22;11385;50.822;4.324;2023-12-20T15:12:17;9.30;99.90
22436;DHT22;11385;50.822;4.324;2023-12-20T15:14:45;9.40;99.90
22436;DHT22;11385;50.822;4.324;2023-12-20T15:17:12;9.40;99.90
22436;DHT22;11385;50.822;4.324;2023-12-20T15:19:41;9.20;99.90
22436;DHT22;11385;50.822;4.324;2023-12-20T15:22:08;9.20;99.90
22436;DHT22;11385;50.822;4.324;2023-12-20T15:24:37;9.30;99.90
22436;DHT22;11385;50.822;4.324;2023-12-20T15:27:06;9.40;99.90
22436;DHT22;11385;50.822;4.324;2023-12-20T15:29:34;9.30;99.90
22436;DHT22;11385;50.822;4.324;2023-12-20T15:32:01;9.40;99.90
22436;DHT22;11385;50.822;4.324;2023-12-20T15:34:30;9.30;99.90
22436;DHT22;11385;50.822;4.324;2023-12-20T15:36:57;9.40;99.90
22436;DHT22;11385;50.822;4.324;2023-12-20T15:39:26;9.30;99.90
22436;DHT22;11385;50.822;4.324;2023-12-20T15:41:52;9.40;99.90
22436;DHT22;11385;50.822;4.324;2023-12-20T15:44:19;9.30;99.90
22436;DHT22;11385;50.822;4.324;2023-12-20T15:46:46;9.30;99.90
22436;DHT22;11385;50.822;4.324;2023-12-20T15:49:13;9.40;99.90